sensor_id;sensor_type;location;lat;lon;timestamp;pressure;altitude;pressure_sealevel;temperature;humidity
7832;BME280;3961;42.058;25.586;2023-03-22T00:00:48;63303.84;;;9.68;100.00
7832;BME280;3961;42.058;25.586;2023-03-22T00:03:14;63304.75;;;9.67;100.00
7832;BME280;3961;42.058;25.586;2023-03-22T00:05:40;63309.38;;;9.71;100.00
7832;BME280;3961;42.058;25.586;2023-03-22T00:08:06;63286.63;;;9.49;100.00
7832;BME280;3961;42.058;25.586;2023-03-22T00:10:33;63277.63;;;9.43;100.00
7832;BME280;3961;42.058;25.586;2023-03-22T00:13:00;63254.81;;;9.25;100.00
7832;BME280;3961;42.058;25.586;2023-03-22T00:15:26;63257.69;;;9.28;100.00
7832;BME280;3961;42.058;25.586;2023-03-22T00:17:55;63255.16;;;9.23;100.00
7832;BME280;3961;42.058;25.586;2023-03-22T00:20:21;63244.44;;;9.16;100.00
7832;BME280;3961;42.058;25.586;2023-03-22T00:22:48;63240.41;;;9.13;100.00
7832;BME280;3961;42.058;25.586;2023-03-22T00:25:16;63240.97;;;9.13;100.00
7832;BME280;3961;42.058;25.586;2023-03-22T00:27:41;63252.84;;;9.21;100.00
7832;BME280;3961;42.058;25.586;2023-03-22T00:30:08;63240.63;;;9.15;100.00
7832;BME280;3961;42.058;25.586;2023-03-22T00:32:35;63230.13;;;8.99;100.00
7832;BME280;3961;42.058;25.586;2023-03-22T00:35:02;63232.09;;;9.03;100.00
7832;BME280;3961;42.058;25.586;2023-03-22T00:37:28;63228.88;;;9.02;100.00
7832;BME280;3961;42.058;25.586;2023-03-22T00:40:03;63210.19;;;8.84;100.00
7832;BME280;3961;42.058;25.586;2023-03-22T00:42:29;63230.94;;;9.02;100.00
7832;BME280;3961;42.058;25.586;2023-03-22T00:44:54;63241.66;;;9.09;100.00
7832;BME280;3961;42.058;25.586;2023-03-22T00:47:20;63234.06;;;9.07;100.00
7832;BME280;3961;42.058;25.586;2023-03-22T00:49:46;63242.94;;;9.17;100.00
7832;BME280;3961;42.058;25.586;2023-03-22T00:52:11;63268.91;;;9.40;100.00
7832;BME280;3961;42.058;25.586;2023-03-22T00:54:37;63293.47;;;9.59;100.00
7832;BME280;3961;42.058;25.586;2023-03-22T00:57:02;63273.84;;;9.42;100.00
7832;BME280;3961;42.058;25.586;2023-03-22T00:59:28;63302.69;;;9.67;100.00
7832;BME280;3961;42.058;25.586;2023-03-22T01:01:54;63324.94;;;9.85;100.00
7832;BME280;3961;42.058;25.586;2023-03-22T01:04:22;63309.16;;;9.68;100.00
7832;BME280;3961;42.058;25.586;2023-03-22T01:06:51;63320.91;;;9.81;100.00
7832;BME280;3961;42.058;25.586;2023-03-22T01:09:27;63339.63;;;10.00;100.00
7832;BME280;3961;42.058;25.586;2023-03-22T01:11:55;63360.50;;;10.14;100.00
7832;BME280;3961;42.058;25.586;2023-03-22T01:14:23;63345.75;;;10.03;100.00
7832;BME280;3961;42.058;25.586;2023-03-22T01:16:49;63328.88;;;9.93;100.00
7832;BME280;3961;42.058;25.586;2023-03-22T01:19:15;63320.56;;;9.83;100.00
7832;BME280;3961;42.058;25.586;2023-03-22T01:21:40;63342.84;;;10.00;100.00
7832;BME280;3961;42.058;25.586;2023-03-22T01:24:06;63336.50;;;9.95;100.00
7832;BME280;3961;42.058;25.586;2023-03-22T01:26:32;63273.84;;;9.42;100.00
7832;BME280;3961;42.058;25.586;2023-03-22T01:28:58;63276.16;;;9.44;100.00
7832;BME280;3961;42.058;25.586;2023-03-22T01:31:23;63284.00;;;9.49;100.00
7832;BME280;3961;42.058;25.586;2023-03-22T01:33:49;63276.16;;;9.44;100.00
7832;BME280;3961;42.058;25.586;2023-03-22T01:36:14;63280.19;;;9.48;100.00
7832;BME280;3961;42.058;25.586;2023-03-22T01:38:40;63265.78;;;9.35;100.00
7832;BME280;3961;42.058;25.586;2023-03-22T01:41:05;63253.66;;;9.24;100.00
7832;BME280;3961;42.058;25.586;2023-03-22T01:43:31;63247.06;;;9.16;100.00
7832;BME280;3961;42.058;25.586;2023-03-22T01:45:57;63230.03;;;9.03;100.00
7832;BME280;3961;42.058;25.586;2023-03-22T01:48:30;63220.56;;;8.93;100.00
7832;BME280;3961;42.058;25.586;2023-03-22T01:51:11;63237.06;;;9.05;100.00
7832;BME280;3961;42.058;25.586;2023-03-22T01:53:42;63237.28;;;9.07;100.00
7832;BME280;3961;42.058;25.586;2023-03-22T01:56:10;63240.41;;;9.13;100.00
7832;BME280;3961;42.058;25.586;2023-03-22T01:58:37;63241.31;;;9.11;100.00
7832;BME280;3961;42.058;25.586;2023-03-22T02:01:05;63290.56;;;9.57;100.00
7832;BME280;3961;42.058;25.586;2023-03-22T02:06:16;63269.81;;;9.38;100.00
7832;BME280;3961;42.058;25.586;2023-03-22T02:08:42;63269.34;;;9.33;100.00
7832;BME280;3961;42.058;25.586;2023-03-22T02:11:13;63270.97;;;9.39;100.00
7832;BME280;3961;42.058;25.586;2023-03-22T02:27:26;63258.84;;;9.29;100.00
7832;BME280;3961;42.058;25.586;2023-03-22T02:35:42;63260.09;;;9.25;100.00
7832;BME280;3961;42.058;25.586;2023-03-22T02:44:03;63282.25;;;9.47;100.00
7832;BME280;3961;42.058;25.586;2023-03-22T02:46:37;63296.44;;;9.57;100.00
7832;BME280;3961;42.058;25.586;2023-03-22T02:49:29;63305.00;;;9.69;100.00
7832;BME280;3961;42.058;25.586;2023-03-22T02:52:02;63321.38;;;9.86;100.00
7832;BME280;3961;42.058;25.586;2023-03-22T02:54:38;63331.44;;;9.97;100.00
7832;BME280;3961;42.058;25.586;2023-03-22T02:57:12;63337.91;;;9.98;100.00
7832;BME280;3961;42.058;25.586;2023-03-22T02:59:41;63352.88;;;10.11;100.00
7832;BME280;3961;42.058;25.586;2023-03-22T03:02:10;63356.44;;;10.10;100.00
7832;BME280;3961;42.058;25.586;2023-03-22T03:04:45;63345.41;;;10.05;100.00
7832;BME280;3961;42.058;25.586;2023-03-22T03:07:15;63355.19;;;10.14;100.00
7832;BME280;3961;42.058;25.586;2023-03-22T03:09:42;63354.28;;;10.15;100.00
7832;BME280;3961;42.058;25.586;2023-03-22T03:12:13;63330.38;;;9.92;100.00
7832;BME280;3961;42.058;25.586;2023-03-22T03:14:40;63314.56;;;9.75;100.00
7832;BME280;3961;42.058;25.586;2023-03-22T03:25:39;63264.28;;;9.36;100.00
7832;BME280;3961;42.058;25.586;2023-03-22T03:28:16;63252.28;;;9.21;100.00
7832;BME280;3961;42.058;25.586;2023-03-22T03:30:58;63256.66;;;9.22;100.00
7832;BME280;3961;42.058;25.586;2023-03-22T03:33:26;63246.16;;;9.18;100.00
7832;BME280;3961;42.058;25.586;2023-03-22T03:35:58;63242.13;;;9.14;100.00
7832;BME280;3961;42.058;25.586;2023-03-22T03:38:28;63255.16;;;9.23;100.00
7832;BME280;3961;42.058;25.586;2023-03-22T03:41:05;63227.16;;;9.01;100.00
7832;BME280;3961;42.058;25.586;2023-03-22T03:43:32;63242.47;;;9.12;100.00
7832;BME280;3961;42.058;25.586;2023-03-22T03:45:59;63254.56;;;9.23;100.00
7832;BME280;3961;42.058;25.586;2023-03-22T03:48:27;63274.19;;;9.40;100.00
7832;BME280;3961;42.058;25.586;2023-03-22T03:50:55;63239.25;;;9.12;100.00
7832;BME280;3961;42.058;25.586;2023-03-22T03:53:21;63229.03;;;9.09;100.00
7832;BME280;3961;42.058;25.586;2023-03-22T03:55:47;63245.94;;;9.15;100.00
7832;BME280;3961;42.058;25.586;2023-03-22T03:58:12;63266.13;;;9.33;100.00
7832;BME280;3961;42.058;25.586;2023-03-22T04:00:40;63235.22;;;9.08;100.00
7832;BME280;3961;42.058;25.586;2023-03-22T04:03:06;63236.59;;;9.12;100.00
7832;BME280;3961;42.058;25.586;2023-03-22T04:05:32;63234.06;;;9.07;100.00
7832;BME280;3961;42.058;25.586;2023-03-22T04:07:57;63274.41;;;9.42;100.00
7832;BME280;3961;42.058;25.586;2023-03-22T04:10:22;63291.38;;;9.60;100.00
7832;BME280;3961;42.058;25.586;2023-03-22T04:12:48;63309.03;;;9.73;100.00
7832;BME280;3961;42.058;25.586;2023-03-22T04:15:14;63330.50;;;9.87;100.00
7832;BME280;3961;42.058;25.586;2023-03-22T04:17:39;63317.69;;;9.81;100.00
7832;BME280;3961;42.058;25.586;2023-03-22T04:20:07;63339.84;;;10.02;100.00
7832;BME280;3961;42.058;25.586;2023-03-22T04:22:35;63341.34;;;10.01;100.00
7832;BME280;3961;42.058;25.586;2023-03-22T04:25:06;63342.84;;;10.00;100.00
7832;BME280;3961;42.058;25.586;2023-03-22T04:27:40;63292.88;;;9.59;100.00
7832;BME280;3961;42.058;25.586;2023-03-22T04:30:07;63308.81;;;9.70;100.00
7832;BME280;3961;42.058;25.586;2023-03-22T04:32:35;63277.53;;;9.48;100.00
7832;BME280;3961;42.058;25.586;2023-03-22T04:35:02;63291.16;;;9.57;100.00
7832;BME280;3961;42.058;25.586;2023-03-22T04:37:28;63291.50;;;9.55;100.00
7832;BME280;3961;42.058;25.586;2023-03-22T04:39:56;63299.22;;;9.64;100.00
7832;BME280;3961;42.058;25.586;2023-03-22T04:42:22;63302.69;;;9.67;100.00
7832;BME280;3961;42.058;25.586;2023-03-22T04:44:47;63310.78;;;9.74;100.00
7832;BME280;3961;42.058;25.586;2023-03-22T04:47:13;63306.72;;;9.71;100.00
7832;BME280;3961;42.058;25.586;2023-03-22T04:49:38;63284.00;;;9.49;100.00
7832;BME280;3961;42.058;25.586;2023-03-22T04:52:04;63288.50;;;9.57;100.00
7832;BME280;3961;42.058;25.586;2023-03-22T04:54:30;63281.00;;;9.51;100.00
7832;BME280;3961;42.058;25.586;2023-03-22T04:56:56;63300.97;;;9.66;100.00
7832;BME280;3961;42.058;25.586;2023-03-22T04:59:21;63325.28;;;9.83;100.00
7832;BME280;3961;42.058;25.586;2023-03-22T05:01:47;63335.91;;;9.94;100.00
7832;BME280;3961;42.058;25.586;2023-03-22T05:04:17;63332.13;;;9.93;100.00
7832;BME280;3961;42.058;25.586;2023-03-22T05:06:44;63327.03;;;9.84;100.00
7832;BME280;3961;42.058;25.586;2023-03-22T05:09:10;63337.91;;;9.98;100.00
7832;BME280;3961;42.058;25.586;2023-03-22T05:11:35;63333.63;;;9.92;100.00
7832;BME280;3961;42.058;25.586;2023-03-22T05:14:01;63352.88;;;10.11;100.00
7832;BME280;3961;42.058;25.586;2023-03-22T05:16:27;63355.78;;;10.14;100.00
7832;BME280;3961;42.058;25.586;2023-03-22T05:18:53;63341.69;;;9.99;100.00
7832;BME280;3961;42.058;25.586;2023-03-22T05:21:21;63333.28;;;9.94;100.00
7832;BME280;3961;42.058;25.586;2023-03-22T05:23:47;63333.03;;;9.92;100.00
7832;BME280;3961;42.058;25.586;2023-03-22T05:26:12;63355.28;;;10.09;100.00
7832;BME280;3961;42.058;25.586;2023-03-22T05:28:44;63349.53;;;10.04;100.00
7832;BME280;3961;42.058;25.586;2023-03-22T05:31:10;63355.44;;;10.16;100.00
7832;BME280;3961;42.058;25.586;2023-03-22T05:33:38;63360.38;;;10.18;100.00
7832;BME280;3961;42.058;25.586;2023-03-22T05:36:06;63371.03;;;10.30;100.00
7832;BME280;3961;42.058;25.586;2023-03-22T05:38:32;63368.25;;;10.23;100.00
7832;BME280;3961;42.058;25.586;2023-03-22T05:40:57;63342.84;;;10.00;100.00
7832;BME280;3961;42.058;25.586;2023-03-22T05:43:23;63339.03;;;9.99;100.00
7832;BME280;3961;42.058;25.586;2023-03-22T05:45:49;63327.50;;;9.89;100.00
7832;BME280;3961;42.058;25.586;2023-03-22T05:48:15;63332.47;;;9.91;100.00
7832;BME280;3961;42.058;25.586;2023-03-22T05:50:41;63344.25;;;10.04;100.00
7832;BME280;3961;42.058;25.586;2023-03-22T05:53:06;63311.34;;;9.75;100.00
7832;BME280;3961;42.058;25.586;2023-03-22T05:55:32;63312.84;;;9.74;100.00
7832;BME280;3961;42.058;25.586;2023-03-22T05:57:58;63316.53;;;9.80;100.00
7832;BME280;3961;42.058;25.586;2023-03-22T06:00:26;63324.72;;;9.82;100.00
7832;BME280;3961;42.058;25.586;2023-03-22T06:02:52;63306.72;;;9.71;100.00
7832;BME280;3961;42.058;25.586;2023-03-22T06:05:21;63312.47;;;9.76;100.00
7832;BME280;3961;42.058;25.586;2023-03-22T06:07:47;63324.94;;;9.85;100.00
7832;BME280;3961;42.058;25.586;2023-03-22T06:10:13;63337.91;;;9.98;100.00
7832;BME280;3961;42.058;25.586;2023-03-22T06:12:40;63350.81;;;10.12;100.00
7832;BME280;3961;42.058;25.586;2023-03-22T06:15:06;63354.38;;;10.10;100.00
7832;BME280;3961;42.058;25.586;2023-03-22T06:17:32;63328.66;;;9.90;100.00
7832;BME280;3961;42.058;25.586;2023-03-22T06:19:58;63329.81;;;9.91;100.00
7832;BME280;3961;42.058;25.586;2023-03-22T06:22:24;63339.16;;;9.95;100.00
7832;BME280;3961;42.058;25.586;2023-03-22T06:24:49;63349.41;;;10.08;100.00
7832;BME280;3961;42.058;25.586;2023-03-22T06:27:15;63361.06;;;10.14;100.00
7832;BME280;3961;42.058;25.586;2023-03-22T06:29:42;63371.38;;;10.28;100.00
7832;BME280;3961;42.058;25.586;2023-03-22T06:32:08;63372.19;;;10.31;100.00
7832;BME280;3961;42.058;25.586;2023-03-22T06:34:33;63382.94;;;10.38;100.00
7832;BME280;3961;42.058;25.586;2023-03-22T06:36:59;63380.06;;;10.35;100.00
7832;BME280;3961;42.058;25.586;2023-03-22T06:39:25;63390.19;;;10.42;100.00
7832;BME280;3961;42.058;25.586;2023-03-22T06:41:51;63399.09;;;10.52;100.00
7832;BME280;3961;42.058;25.586;2023-03-22T06:44:17;63368.16;;;10.27;100.00
7832;BME280;3961;42.058;25.586;2023-03-22T06:46:42;63385.69;;;10.33;100.00
7832;BME280;3961;42.058;25.586;2023-03-22T06:49:08;63400.94;;;10.49;100.00
7832;BME280;3961;42.058;25.586;2023-03-22T06:51:34;63336.84;;;9.93;100.00
7832;BME280;3961;42.058;25.586;2023-03-22T06:54:00;63399.44;;;10.50;100.00
7832;BME280;3961;42.058;25.586;2023-03-22T06:56:25;63403.81;;;10.52;100.00
7832;BME280;3961;42.058;25.586;2023-03-22T06:58:51;63421.06;;;10.71;100.00
7832;BME280;3961;42.058;25.586;2023-03-22T07:01:19;63412.97;;;10.64;100.00
7832;BME280;3961;42.058;25.586;2023-03-22T07:03:45;63372.78;;;10.31;100.00
7832;BME280;3961;42.058;25.586;2023-03-22T07:06:11;63393.31;;;10.47;100.00
7832;BME280;3961;42.058;25.586;2023-03-22T07:08:37;63420.47;;;10.71;100.00
7832;BME280;3961;42.058;25.586;2023-03-22T07:11:04;63441.94;;;10.85;100.00
7832;BME280;3961;42.058;25.586;2023-03-22T07:13:30;63389.28;;;10.43;100.00
7832;BME280;3961;42.058;25.586;2023-03-22T07:15:56;63417.59;;;10.68;100.00
7832;BME280;3961;42.058;25.586;2023-03-22T07:18:23;63424.06;;;10.69;100.00
7832;BME280;3961;42.058;25.586;2023-03-22T07:20:49;63420.69;;;10.73;100.00
7832;BME280;3961;42.058;25.586;2023-03-22T07:23:15;63455.38;;;11.04;100.00
7832;BME280;3961;42.058;25.586;2023-03-22T07:25:42;63458.03;;;11.04;100.00
7832;BME280;3961;42.058;25.586;2023-03-22T07:28:08;63451.44;;;10.96;100.00
7832;BME280;3961;42.058;25.586;2023-03-22T07:30:36;63437.22;;;10.86;100.00
7832;BME280;3961;42.058;25.586;2023-03-22T07:33:03;63439.88;;;10.86;100.00
7832;BME280;3961;42.058;25.586;2023-03-22T07:35:29;63462.97;;;11.06;100.00
7832;BME280;3961;42.058;25.586;2023-03-22T07:37:55;63496.50;;;11.35;100.00
7832;BME280;3961;42.058;25.586;2023-03-22T07:40:21;63487.97;;;11.35;100.00
7832;BME280;3961;42.058;25.586;2023-03-22T07:42:47;63496.50;;;11.35;100.00
7832;BME280;3961;42.058;25.586;2023-03-22T07:45:13;63500.66;;;11.34;100.00
7832;BME280;3961;42.058;25.586;2023-03-22T07:47:38;63529.47;;;11.64;100.00
7832;BME280;3961;42.058;25.586;2023-03-22T07:50:04;63544.50;;;11.77;100.00
7832;BME280;3961;42.058;25.586;2023-03-22T07:52:30;63558.06;;;11.92;100.00
7832;BME280;3961;42.058;25.586;2023-03-22T07:54:56;63690.34;;;13.05;100.00
7832;BME280;3961;42.058;25.586;2023-03-22T07:57:21;63698.78;;;13.10;100.00
7832;BME280;3961;42.058;25.586;2023-03-22T07:59:47;63551.69;;;11.86;100.00
7832;BME280;3961;42.058;25.586;2023-03-22T08:02:12;63529.34;;;11.69;100.00
7832;BME280;3961;42.058;25.586;2023-03-22T08:04:37;63551.09;;;11.86;100.00
7832;BME280;3961;42.058;25.586;2023-03-22T08:07:03;63685.94;;;13.04;100.00
7832;BME280;3961;42.058;25.586;2023-03-22T08:09:30;63825.63;;;14.26;100.00
7832;BME280;3961;42.058;25.586;2023-03-22T08:11:55;63933.56;;;15.21;100.00
7832;BME280;3961;42.058;25.586;2023-03-22T08:14:21;63837.22;;;14.36;100.00
7832;BME280;3961;42.058;25.586;2023-03-22T08:16:46;63795.59;;;13.95;100.00
7832;BME280;3961;42.058;25.586;2023-03-22T08:19:12;63693.81;;;13.08;100.00
7832;BME280;3961;42.058;25.586;2023-03-22T08:21:38;63654.44;;;12.74;100.00
7832;BME280;3961;42.058;25.586;2023-03-22T08:24:04;63655.59;;;12.75;100.00
7832;BME280;3961;42.058;25.586;2023-03-22T08:26:30;63639.06;;;12.63;100.00
7832;BME280;3961;42.058;25.586;2023-03-22T08:28:56;63616.47;;;12.43;100.00
7832;BME280;3961;42.058;25.586;2023-03-22T08:31:21;63627.81;;;12.51;100.00
7832;BME280;3961;42.058;25.586;2023-03-22T08:33:47;63595.06;;;12.24;100.00
7832;BME280;3961;42.058;25.586;2023-03-22T08:36:16;63574.22;;;12.06;100.00
7832;BME280;3961;42.058;25.586;2023-03-22T08:38:42;63613.91;;;12.38;100.00
7832;BME280;3961;42.058;25.586;2023-03-22T08:41:10;63594.50;;;12.24;100.00
7832;BME280;3961;42.058;25.586;2023-03-22T08:43:36;63573.66;;;12.05;100.00
7832;BME280;3961;42.058;25.586;2023-03-22T08:46:02;63556.06;;;11.88;100.00
7832;BME280;3961;42.058;25.586;2023-03-22T08:48:28;63643.47;;;12.64;100.00
7832;BME280;3961;42.058;25.586;2023-03-22T08:50:55;63603.19;;;12.31;100.00
7832;BME280;3961;42.058;25.586;2023-03-22T08:53:22;63564.19;;;11.95;100.00
7832;BME280;3961;42.058;25.586;2023-03-22T08:55:47;63572.84;;;12.02;100.00
7832;BME280;3961;42.058;25.586;2023-03-22T08:58:14;63571.34;;;12.03;100.00
7832;BME280;3961;42.058;25.586;2023-03-22T09:00:41;63563.59;;;11.94;100.00
7832;BME280;3961;42.058;25.586;2023-03-22T09:03:08;63528.53;;;11.66;100.00
7832;BME280;3961;42.058;25.586;2023-03-22T09:05:33;63527.72;;;11.63;100.00
7832;BME280;3961;42.058;25.586;2023-03-22T09:07:59;63554.91;;;11.87;100.00
7832;BME280;3961;42.058;25.586;2023-03-22T09:10:27;63557.47;;;11.91;100.00
7832;BME280;3961;42.058;25.586;2023-03-22T09:12:53;63558.97;;;11.90;100.00
7832;BME280;3961;42.058;25.586;2023-03-22T09:15:19;63580.03;;;12.11;100.00
7832;BME280;3961;42.058;25.586;2023-03-22T09:17:44;63572.28;;;12.02;100.00
7832;BME280;3961;42.058;25.586;2023-03-22T09:20:10;63572.84;;;12.02;100.00
7832;BME280;3961;42.058;25.586;2023-03-22T09:22:36;63582.09;;;12.10;100.00
7832;BME280;3961;42.058;25.586;2023-03-22T09:25:02;63592.28;;;12.17;100.00
7832;BME280;3961;42.058;25.586;2023-03-22T09:27:29;63603.75;;;12.32;100.00
7832;BME280;3961;42.058;25.586;2023-03-22T09:29:55;63602.59;;;12.31;100.00
7832;BME280;3961;42.058;25.586;2023-03-22T09:32:21;63614.50;;;12.39;100.00
7832;BME280;3961;42.058;25.586;2023-03-22T09:34:47;63618.31;;;12.40;100.00
7832;BME280;3961;42.058;25.586;2023-03-22T09:37:12;63609.31;;;12.34;100.00
7832;BME280;3961;42.058;25.586;2023-03-22T09:39:40;63622.94;;;12.44;100.00
7832;BME280;3961;42.058;25.586;2023-03-22T09:44:55;63581.41;;;12.15;100.00
7832;BME280;3961;42.058;25.586;2023-03-22T09:47:45;63581.19;;;12.12;100.00
7832;BME280;3961;42.058;25.586;2023-03-22T09:50:18;63603.41;;;12.34;100.00
7832;BME280;3961;42.058;25.586;2023-03-22T09:52:44;63611.25;;;12.38;100.00
7832;BME280;3961;42.058;25.586;2023-03-22T10:00:55;63612.41;;;12.39;100.00
7832;BME280;3961;42.058;25.586;2023-03-22T10:06:19;63688.03;;;13.03;100.00
7832;BME280;3961;42.058;25.586;2023-03-22T10:16:31;63727.66;;;13.40;100.00
7832;BME280;3961;42.058;25.586;2023-03-22T10:19:30;63721.63;;;13.33;100.00
7832;BME280;3961;42.058;25.586;2023-03-22T10:22:00;63701.69;;;13.13;100.00
7832;BME280;3961;42.058;25.586;2023-03-22T10:24:32;63693.47;;;13.10;100.00
7832;BME280;3961;42.058;25.586;2023-03-22T10:26:58;63678.19;;;12.95;100.00
7832;BME280;3961;42.058;25.586;2023-03-22T10:29:37;63711.56;;;13.22;100.00
7832;BME280;3961;42.058;25.586;2023-03-22T10:34:35;63755.59;;;13.60;100.00
7832;BME280;3961;42.058;25.586;2023-03-22T10:37:02;63748.75;;;13.61;100.00
7832;BME280;3961;42.058;25.586;2023-03-22T10:39:33;63747.13;;;13.55;100.00
7832;BME280;3961;42.058;25.586;2023-03-22T10:42:02;63760.44;;;13.67;100.00
7832;BME280;3961;42.058;25.586;2023-03-22T10:44:31;63732.41;;;13.40;100.00
7832;BME280;3961;42.058;25.586;2023-03-22T10:47:02;63722.22;;;13.33;100.00
7832;BME280;3961;42.058;25.586;2023-03-22T10:49:37;63691.50;;;13.06;100.00
7832;BME280;3961;42.058;25.586;2023-03-22T10:52:32;63722.78;;;13.34;100.00
7832;BME280;3961;42.058;25.586;2023-03-22T10:55:03;63707.41;;;13.23;100.00
7832;BME280;3961;42.058;25.586;2023-03-22T10:57:28;63698.69;;;13.15;100.00
7832;BME280;3961;42.058;25.586;2023-03-22T10:59:55;63684.53;;;13.00;100.00
7832;BME280;3961;42.058;25.586;2023-03-22T11:02:26;63703.56;;;13.22;100.00
7832;BME280;3961;42.058;25.586;2023-03-22T11:04:55;63697.63;;;13.09;100.00
7832;BME280;3961;42.058;25.586;2023-03-22T11:07:34;63686.28;;;13.02;100.00
7832;BME280;3961;42.058;25.586;2023-03-22T11:10:25;63705.88;;;13.24;100.00
7832;BME280;3961;42.058;25.586;2023-03-22T11:15:32;63704.00;;;13.15;100.00
7832;BME280;3961;42.058;25.586;2023-03-22T11:18:07;63706.59;;;13.20;100.00
7832;BME280;3961;42.058;25.586;2023-03-22T11:20:39;63709.47;;;13.22;100.00
7832;BME280;3961;42.058;25.586;2023-03-22T11:23:04;63736.94;;;13.49;100.00
7832;BME280;3961;42.058;25.586;2023-03-22T11:25:34;63750.38;;;13.56;100.00
7832;BME280;3961;42.058;25.586;2023-03-22T11:30:29;63783.31;;;13.89;100.00
7832;BME280;3961;42.058;25.586;2023-03-22T11:35:35;63794.44;;;13.94;100.00
7832;BME280;3961;42.058;25.586;2023-03-22T11:38:01;63755.47;;;13.65;100.00
7832;BME280;3961;42.058;25.586;2023-03-22T11:40:29;63756.41;;;13.63;100.00
7832;BME280;3961;42.058;25.586;2023-03-22T11:45:34;63759.88;;;13.66;100.00
7832;BME280;3961;42.058;25.586;2023-03-22T11:48:06;63779.34;;;13.81;100.00
7832;BME280;3961;42.058;25.586;2023-03-22T11:50:37;63782.72;;;13.89;100.00
7832;BME280;3961;42.058;25.586;2023-03-22T11:53:06;63734.63;;;13.47;100.00
7832;BME280;3961;42.058;25.586;2023-03-22T11:55:35;63775.28;;;13.77;100.00
7832;BME280;3961;42.058;25.586;2023-03-22T11:58:02;63798.94;;;14.03;100.00
7832;BME280;3961;42.058;25.586;2023-03-22T12:00:34;63822.16;;;14.23;100.00
7832;BME280;3961;42.058;25.586;2023-03-22T12:03:13;63846.03;;;14.39;99.78
7832;BME280;3961;42.058;25.586;2023-03-22T12:05:43;63873.19;;;14.68;98.47
7832;BME280;3961;42.058;25.586;2023-03-22T12:08:17;63863.13;;;14.57;99.76
7832;BME280;3961;42.058;25.586;2023-03-22T12:11:06;63847.09;;;14.45;98.86
7832;BME280;3961;42.058;25.586;2023-03-22T12:13:44;63875.28;;;14.67;98.65
7832;BME280;3961;42.058;25.586;2023-03-22T12:16:17;63871.22;;;14.64;98.61
7832;BME280;3961;42.058;25.586;2023-03-22T12:19:05;63854.41;;;14.49;99.90
7832;BME280;3961;42.058;25.586;2023-03-22T12:21:36;63869.47;;;14.62;98.73
7832;BME280;3961;42.058;25.586;2023-03-22T12:24:03;63847.44;;;14.43;99.15
7832;BME280;3961;42.058;25.586;2023-03-22T12:26:37;63894.44;;;14.84;97.91
7832;BME280;3961;42.058;25.586;2023-03-22T12:29:14;63890.59;;;14.83;98.68
7832;BME280;3961;42.058;25.586;2023-03-22T12:35:11;63850.34;;;14.45;97.88
7832;BME280;3961;42.058;25.586;2023-03-22T12:37:38;63859.88;;;14.56;99.97
7832;BME280;3961;42.058;25.586;2023-03-22T12:40:28;63840.81;;;14.35;98.58
7832;BME280;3961;42.058;25.586;2023-03-22T12:43:16;63862.41;;;14.61;100.00
7832;BME280;3961;42.058;25.586;2023-03-22T12:45:48;63879.94;;;14.71;96.89
7832;BME280;3961;42.058;25.586;2023-03-22T12:48:31;63896.53;;;14.84;97.31
7832;BME280;3961;42.058;25.586;2023-03-22T12:51:01;63838.94;;;14.38;95.11
7832;BME280;3961;42.058;25.586;2023-03-22T12:53:41;63911.84;;;14.99;92.72
7832;BME280;3961;42.058;25.586;2023-03-22T12:56:13;63935.06;;;15.20;93.07
7832;BME280;3961;42.058;25.586;2023-03-22T12:58:43;63949.00;;;15.32;94.56
7832;BME280;3961;42.058;25.586;2023-03-22T13:01:21;63882.25;;;14.73;95.32
7832;BME280;3961;42.058;25.586;2023-03-22T13:03:51;63899.09;;;14.88;94.82
7832;BME280;3961;42.058;25.586;2023-03-22T13:09:17;63887.25;;;14.75;96.63
7832;BME280;3961;42.058;25.586;2023-03-22T13:12:24;63918.22;;;15.05;94.51
7832;BME280;3961;42.058;25.586;2023-03-22T13:14:59;63895.59;;;14.85;95.63
7832;BME280;3961;42.058;25.586;2023-03-22T13:27:36;63881.91;;;14.75;95.34
7832;BME280;3961;42.058;25.586;2023-03-22T13:30:05;63876.78;;;14.66;96.00
7832;BME280;3961;42.058;25.586;2023-03-22T13:32:57;63892.94;;;14.85;97.08
7832;BME280;3961;42.058;25.586;2023-03-22T13:38:29;63880.50;;;14.72;94.87
7832;BME280;3961;42.058;25.586;2023-03-22T13:41:30;63888.63;;;14.79;95.45
7832;BME280;3961;42.058;25.586;2023-03-22T13:43:57;63893.28;;;14.83;97.01
7832;BME280;3961;42.058;25.586;2023-03-22T13:49:14;63852.91;;;14.50;94.13
7832;BME280;3961;42.058;25.586;2023-03-22T13:51:42;63867.63;;;14.65;94.50
7832;BME280;3961;42.058;25.586;2023-03-22T13:54:16;63848.59;;;14.44;94.71
7832;BME280;3961;42.058;25.586;2023-03-22T14:07:28;63846.28;;;14.42;93.88
7832;BME280;3961;42.058;25.586;2023-03-22T14:10:06;63820.16;;;14.19;95.78
7832;BME280;3961;42.058;25.586;2023-03-22T14:13:19;63797.19;;;14.01;96.96
7832;BME280;3961;42.058;25.586;2023-03-22T14:15:54;63789.44;;;13.92;97.02
7832;BME280;3961;42.058;25.586;2023-03-22T14:18:26;63791.78;;;13.94;96.95
7832;BME280;3961;42.058;25.586;2023-03-22T14:21:02;63761.03;;;13.67;98.25
7832;BME280;3961;42.058;25.586;2023-03-22T14:23:34;63759.66;;;13.64;98.73
7832;BME280;3961;42.058;25.586;2023-03-22T14:26:25;63779.59;;;13.84;100.00
7832;BME280;3961;42.058;25.586;2023-03-22T14:28:53;63775.53;;;13.80;100.00
7832;BME280;3961;42.058;25.586;2023-03-22T14:31:28;63748.53;;;13.59;99.67
7832;BME280;3961;42.058;25.586;2023-03-22T14:34:03;63757.34;;;13.62;99.29
7832;BME280;3961;42.058;25.586;2023-03-22T14:36:37;63758.72;;;13.65;100.00
7832;BME280;3961;42.058;25.586;2023-03-22T14:39:14;63738.44;;;13.48;100.00
7832;BME280;3961;42.058;25.586;2023-03-22T14:42:04;63729.75;;;13.40;100.00
7832;BME280;3961;42.058;25.586;2023-03-22T14:44:46;63738.44;;;13.48;100.00
7832;BME280;3961;42.058;25.586;2023-03-22T14:47:23;63732.31;;;13.44;100.00
7832;BME280;3961;42.058;25.586;2023-03-22T14:49:56;63718.19;;;13.30;100.00
7832;BME280;3961;42.058;25.586;2023-03-22T14:52:27;63723.94;;;13.35;100.00
7832;BME280;3961;42.058;25.586;2023-03-22T14:54:56;63752.69;;;13.58;100.00
7832;BME280;3961;42.058;25.586;2023-03-22T14:57:27;63731.47;;;13.41;100.00